sensor_id;sensor_type;location;lat;lon;timestamp;P1;durP1;ratioP1;P2;durP2;ratioP2
19814;SDS011;10067;53.092;8.800;2023-02-01T00:00:13;25.03;;;5.43;;
19814;SDS011;10067;53.092;8.800;2023-02-01T00:02:39;28.73;;;4.57;;
19814;SDS011;10067;53.092;8.800;2023-02-01T00:05:06;33.07;;;5.87;;
19814;SDS011;10067;53.092;8.800;2023-02-01T00:07:34;27.47;;;5.03;;
19814;SDS011;10067;53.092;8.800;2023-02-01T00:10:01;39.63;;;4.77;;
19814;SDS011;10067;53.092;8.800;2023-02-01T00:12:28;28.17;;;5.17;;
19814;SDS011;10067;53.092;8.800;2023-02-01T00:14:55;31.87;;;5.80;;
19814;SDS011;10067;53.092;8.800;2023-02-01T00:17:21;30.20;;;5.17;;
19814;SDS011;10067;53.092;8.800;2023-02-01T00:19:48;31.67;;;5.10;;
19814;SDS011;10067;53.092;8.800;2023-02-01T00:22:14;39.10;;;6.77;;
19814;SDS011;10067;53.092;8.800;2023-02-01T00:24:42;30.27;;;6.07;;
19814;SDS011;10067;53.092;8.800;2023-02-01T00:27:08;33.07;;;5.83;;
19814;SDS011;10067;53.092;8.800;2023-02-01T00:29:34;33.77;;;5.47;;
19814;SDS011;10067;53.092;8.800;2023-02-01T00:32:01;34.07;;;5.40;;
19814;SDS011;10067;53.092;8.800;2023-02-01T00:34:27;28.57;;;5.17;;
19814;SDS011;10067;53.092;8.800;2023-02-01T00:36:54;28.77;;;5.03;;
19814;SDS011;10067;53.092;8.800;2023-02-01T00:39:20;31.13;;;5.33;;
19814;SDS011;10067;53.092;8.800;2023-02-01T00:41:48;26.80;;;5.13;;
19814;SDS011;10067;53.092;8.800;2023-02-01T00:44:14;36.17;;;6.67;;
19814;SDS011;10067;53.092;8.800;2023-02-01T00:46:41;22.87;;;4.97;;
19814;SDS011;10067;53.092;8.800;2023-02-01T00:49:07;38.93;;;5.03;;
19814;SDS011;10067;53.092;8.800;2023-02-01T00:51:34;34.00;;;5.23;;
19814;SDS011;10067;53.092;8.800;2023-02-01T00:54:00;23.70;;;4.53;;
19814;SDS011;10067;53.092;8.800;2023-02-01T00:56:28;31.63;;;5.43;;
19814;SDS011;10067;53.092;8.800;2023-02-01T00:58:56;29.30;;;4.60;;
19814;SDS011;10067;53.092;8.800;2023-02-01T01:01:23;27.23;;;4.60;;
19814;SDS011;10067;53.092;8.800;2023-02-01T01:03:50;28.37;;;6.73;;
19814;SDS011;10067;53.092;8.800;2023-02-01T01:06:18;33.10;;;5.70;;
19814;SDS011;10067;53.092;8.800;2023-02-01T01:08:45;24.67;;;5.00;;
19814;SDS011;10067;53.092;8.800;2023-02-01T01:11:12;32.60;;;5.67;;
19814;SDS011;10067;53.092;8.800;2023-02-01T01:13:39;30.60;;;5.83;;
19814;SDS011;10067;53.092;8.800;2023-02-01T01:16:09;35.43;;;6.87;;
19814;SDS011;10067;53.092;8.800;2023-02-01T01:18:36;32.50;;;5.97;;
19814;SDS011;10067;53.092;8.800;2023-02-01T01:21:03;40.90;;;5.90;;
19814;SDS011;10067;53.092;8.800;2023-02-01T01:23:30;35.97;;;5.80;;
19814;SDS011;10067;53.092;8.800;2023-02-01T01:25:56;27.07;;;5.43;;
19814;SDS011;10067;53.092;8.800;2023-02-01T01:28:23;28.43;;;5.20;;
19814;SDS011;10067;53.092;8.800;2023-02-01T01:30:49;29.43;;;5.13;;
19814;SDS011;10067;53.092;8.800;2023-02-01T01:33:17;26.00;;;5.43;;
19814;SDS011;10067;53.092;8.800;2023-02-01T01:35:43;24.90;;;4.60;;
19814;SDS011;10067;53.092;8.800;2023-02-01T01:38:10;25.63;;;5.63;;
19814;SDS011;10067;53.092;8.800;2023-02-01T01:40:36;31.80;;;5.30;;
19814;SDS011;10067;53.092;8.800;2023-02-01T01:43:03;36.30;;;5.60;;
19814;SDS011;10067;53.092;8.800;2023-02-01T01:45:30;28.87;;;5.50;;
19814;SDS011;10067;53.092;8.800;2023-02-01T01:47:57;31.10;;;5.27;;
19814;SDS011;10067;53.092;8.800;2023-02-01T01:50:26;25.10;;;4.87;;
19814;SDS011;10067;53.092;8.800;2023-02-01T01:52:53;26.07;;;5.63;;
19814;SDS011;10067;53.092;8.800;2023-02-01T01:55:21;31.10;;;5.07;;
19814;SDS011;10067;53.092;8.800;2023-02-01T01:57:50;29.17;;;5.47;;
19814;SDS011;10067;53.092;8.800;2023-02-01T02:00:18;34.80;;;6.00;;
19814;SDS011;10067;53.092;8.800;2023-02-01T02:02:46;29.80;;;5.13;;
19814;SDS011;10067;53.092;8.800;2023-02-01T02:05:13;36.40;;;5.80;;
19814;SDS011;10067;53.092;8.800;2023-02-01T02:07:41;29.97;;;5.40;;
19814;SDS011;10067;53.092;8.800;2023-02-01T02:10:10;34.90;;;6.13;;
19814;SDS011;10067;53.092;8.800;2023-02-01T02:12:37;36.83;;;6.13;;
19814;SDS011;10067;53.092;8.800;2023-02-01T02:15:04;37.50;;;5.43;;
19814;SDS011;10067;53.092;8.800;2023-02-01T02:17:32;32.27;;;5.87;;
19814;SDS011;10067;53.092;8.800;2023-02-01T02:20:07;28.13;;;5.63;;
19814;SDS011;10067;53.092;8.800;2023-02-01T02:22:45;32.40;;;4.83;;
19814;SDS011;10067;53.092;8.800;2023-02-01T02:28:03;32.73;;;5.27;;
19814;SDS011;10067;53.092;8.800;2023-02-01T02:30:39;28.60;;;4.63;;
19814;SDS011;10067;53.092;8.800;2023-02-01T02:35:54;29.70;;;6.20;;
19814;SDS011;10067;53.092;8.800;2023-02-01T02:38:26;26.47;;;4.60;;
19814;SDS011;10067;53.092;8.800;2023-02-01T02:40:56;31.00;;;4.93;;
19814;SDS011;10067;53.092;8.800;2023-02-01T02:43:28;25.03;;;4.97;;
19814;SDS011;10067;53.092;8.800;2023-02-01T02:46:18;31.40;;;5.00;;
19814;SDS011;10067;53.092;8.800;2023-02-01T02:49:05;26.03;;;5.00;;
19814;SDS011;10067;53.092;8.800;2023-02-01T02:51:37;26.87;;;5.13;;
19814;SDS011;10067;53.092;8.800;2023-02-01T02:54:25;28.97;;;4.90;;
19814;SDS011;10067;53.092;8.800;2023-02-01T02:57:12;28.67;;;4.97;;
19814;SDS011;10067;53.092;8.800;2023-02-01T02:59:57;33.90;;;5.60;;
19814;SDS011;10067;53.092;8.800;2023-02-01T03:02:42;29.27;;;5.63;;
19814;SDS011;10067;53.092;8.800;2023-02-01T03:05:31;26.17;;;4.43;;
19814;SDS011;10067;53.092;8.800;2023-02-01T03:08:03;32.70;;;4.37;;
19814;SDS011;10067;53.092;8.800;2023-02-01T03:10:32;26.63;;;5.60;;
19814;SDS011;10067;53.092;8.800;2023-02-01T03:13:02;28.83;;;5.23;;
19814;SDS011;10067;53.092;8.800;2023-02-01T03:15:30;30.70;;;4.80;;
19814;SDS011;10067;53.092;8.800;2023-02-01T03:17:58;29.87;;;5.07;;
19814;SDS011;10067;53.092;8.800;2023-02-01T03:20:27;30.73;;;4.80;;
19814;SDS011;10067;53.092;8.800;2023-02-01T03:22:54;26.13;;;5.20;;
19814;SDS011;10067;53.092;8.800;2023-02-01T03:25:24;27.67;;;5.40;;
19814;SDS011;10067;53.092;8.800;2023-02-01T03:27:52;31.50;;;6.03;;
19814;SDS011;10067;53.092;8.800;2023-02-01T03:30:20;33.53;;;5.17;;
19814;SDS011;10067;53.092;8.800;2023-02-01T03:32:48;27.83;;;4.53;;
19814;SDS011;10067;53.092;8.800;2023-02-01T03:35:26;37.40;;;5.37;;
19814;SDS011;10067;53.092;8.800;2023-02-01T03:37:53;42.97;;;5.63;;
19814;SDS011;10067;53.092;8.800;2023-02-01T03:40:24;26.87;;;4.90;;
19814;SDS011;10067;53.092;8.800;2023-02-01T03:42:52;24.97;;;4.73;;
19814;SDS011;10067;53.092;8.800;2023-02-01T03:45:21;31.17;;;4.70;;
19814;SDS011;10067;53.092;8.800;2023-02-01T03:47:49;25.27;;;4.60;;
19814;SDS011;10067;53.092;8.800;2023-02-01T03:50:18;24.63;;;5.07;;
19814;SDS011;10067;53.092;8.800;2023-02-01T03:52:47;29.37;;;4.83;;
19814;SDS011;10067;53.092;8.800;2023-02-01T03:55:15;21.97;;;5.00;;
19814;SDS011;10067;53.092;8.800;2023-02-01T03:57:45;28.70;;;4.73;;
19814;SDS011;10067;53.092;8.800;2023-02-01T04:00:15;28.03;;;5.17;;
19814;SDS011;10067;53.092;8.800;2023-02-01T04:02:42;25.27;;;4.63;;
19814;SDS011;10067;53.092;8.800;2023-02-01T04:05:09;23.73;;;4.60;;
19814;SDS011;10067;53.092;8.800;2023-02-01T04:07:35;19.47;;;3.60;;
19814;SDS011;10067;53.092;8.800;2023-02-01T04:10:02;22.03;;;3.87;;
19814;SDS011;10067;53.092;8.800;2023-02-01T04:12:29;17.10;;;3.67;;
19814;SDS011;10067;53.092;8.800;2023-02-01T04:14:56;20.77;;;3.33;;
19814;SDS011;10067;53.092;8.800;2023-02-01T04:17:23;19.47;;;4.33;;
19814;SDS011;10067;53.092;8.800;2023-02-01T04:19:49;15.30;;;3.93;;
19814;SDS011;10067;53.092;8.800;2023-02-01T04:22:16;20.33;;;4.00;;
19814;SDS011;10067;53.092;8.800;2023-02-01T04:24:42;20.93;;;4.90;;
19814;SDS011;10067;53.092;8.800;2023-02-01T04:27:08;28.63;;;4.60;;
19814;SDS011;10067;53.092;8.800;2023-02-01T04:29:35;24.50;;;4.67;;
19814;SDS011;10067;53.092;8.800;2023-02-01T04:32:03;22.03;;;5.23;;
19814;SDS011;10067;53.092;8.800;2023-02-01T04:34:29;31.17;;;5.60;;
19814;SDS011;10067;53.092;8.800;2023-02-01T04:36:56;32.67;;;6.20;;
19814;SDS011;10067;53.092;8.800;2023-02-01T04:39:22;20.77;;;4.83;;
19814;SDS011;10067;53.092;8.800;2023-02-01T04:41:48;25.47;;;5.50;;
19814;SDS011;10067;53.092;8.800;2023-02-01T04:44:15;30.57;;;6.07;;
19814;SDS011;10067;53.092;8.800;2023-02-01T04:46:42;32.40;;;5.60;;
19814;SDS011;10067;53.092;8.800;2023-02-01T04:49:10;25.67;;;5.40;;
19814;SDS011;10067;53.092;8.800;2023-02-01T04:51:37;34.90;;;5.93;;
19814;SDS011;10067;53.092;8.800;2023-02-01T04:54:03;32.00;;;5.73;;
19814;SDS011;10067;53.092;8.800;2023-02-01T04:56:30;29.53;;;6.23;;
19814;SDS011;10067;53.092;8.800;2023-02-01T04:58:56;31.17;;;5.67;;
19814;SDS011;10067;53.092;8.800;2023-02-01T05:01:22;33.63;;;6.17;;
19814;SDS011;10067;53.092;8.800;2023-02-01T05:03:49;26.97;;;4.87;;
19814;SDS011;10067;53.092;8.800;2023-02-01T05:06:17;34.80;;;5.97;;
19814;SDS011;10067;53.092;8.800;2023-02-01T05:08:43;19.87;;;4.73;;
19814;SDS011;10067;53.092;8.800;2023-02-01T05:11:09;26.80;;;5.77;;
19814;SDS011;10067;53.092;8.800;2023-02-01T05:13:57;29.73;;;6.87;;
19814;SDS011;10067;53.092;8.800;2023-02-01T05:16:22;25.30;;;5.77;;
19814;SDS011;10067;53.092;8.800;2023-02-01T05:18:49;31.23;;;7.23;;
19814;SDS011;10067;53.092;8.800;2023-02-01T05:21:16;36.10;;;7.57;;
19814;SDS011;10067;53.092;8.800;2023-02-01T05:23:43;25.80;;;6.20;;
19814;SDS011;10067;53.092;8.800;2023-02-01T05:26:27;25.60;;;6.43;;
19814;SDS011;10067;53.092;8.800;2023-02-01T05:28:53;27.13;;;6.63;;
19814;SDS011;10067;53.092;8.800;2023-02-01T05:31:20;28.70;;;6.47;;
19814;SDS011;10067;53.092;8.800;2023-02-01T05:33:46;24.57;;;5.73;;
19814;SDS011;10067;53.092;8.800;2023-02-01T05:36:13;24.70;;;5.33;;
19814;SDS011;10067;53.092;8.800;2023-02-01T05:38:41;17.53;;;5.40;;
19814;SDS011;10067;53.092;8.800;2023-02-01T05:41:07;21.97;;;6.50;;
19814;SDS011;10067;53.092;8.800;2023-02-01T05:43:34;18.67;;;5.50;;
19814;SDS011;10067;53.092;8.800;2023-02-01T05:46:01;26.20;;;5.57;;
19814;SDS011;10067;53.092;8.800;2023-02-01T05:48:27;21.13;;;5.47;;
19814;SDS011;10067;53.092;8.800;2023-02-01T05:50:53;22.57;;;5.63;;
19814;SDS011;10067;53.092;8.800;2023-02-01T05:53:20;20.50;;;4.37;;
19814;SDS011;10067;53.092;8.800;2023-02-01T05:55:48;16.50;;;4.03;;
19814;SDS011;10067;53.092;8.800;2023-02-01T05:58:14;23.80;;;5.13;;
19814;SDS011;10067;53.092;8.800;2023-02-01T06:00:40;21.40;;;3.80;;
19814;SDS011;10067;53.092;8.800;2023-02-01T06:03:07;19.37;;;4.50;;
19814;SDS011;10067;53.092;8.800;2023-02-01T06:05:33;20.53;;;4.37;;
19814;SDS011;10067;53.092;8.800;2023-02-01T06:08:00;15.97;;;3.83;;
19814;SDS011;10067;53.092;8.800;2023-02-01T06:10:26;28.03;;;5.17;;
19814;SDS011;10067;53.092;8.800;2023-02-01T06:12:54;22.17;;;4.23;;
19814;SDS011;10067;53.092;8.800;2023-02-01T06:15:20;39.97;;;5.60;;
19814;SDS011;10067;53.092;8.800;2023-02-01T06:17:47;18.80;;;4.27;;
19814;SDS011;10067;53.092;8.800;2023-02-01T06:20:13;21.90;;;4.73;;
19814;SDS011;10067;53.092;8.800;2023-02-01T06:22:40;31.27;;;5.13;;
19814;SDS011;10067;53.092;8.800;2023-02-01T06:25:08;27.17;;;7.20;;
19814;SDS011;10067;53.092;8.800;2023-02-01T06:27:35;29.23;;;6.20;;
19814;SDS011;10067;53.092;8.800;2023-02-01T06:30:03;23.13;;;6.73;;
19814;SDS011;10067;53.092;8.800;2023-02-01T06:32:29;28.83;;;7.30;;
19814;SDS011;10067;53.092;8.800;2023-02-01T06:34:56;27.07;;;5.67;;
19814;SDS011;10067;53.092;8.800;2023-02-01T06:37:23;20.77;;;4.43;;
19814;SDS011;10067;53.092;8.800;2023-02-01T06:39:51;27.50;;;4.90;;
19814;SDS011;10067;53.092;8.800;2023-02-01T06:42:17;24.67;;;4.53;;
19814;SDS011;10067;53.092;8.800;2023-02-01T06:44:44;21.73;;;5.07;;
19814;SDS011;10067;53.092;8.800;2023-02-01T06:47:12;25.50;;;4.57;;
19814;SDS011;10067;53.092;8.800;2023-02-01T06:49:38;26.13;;;5.10;;
19814;SDS011;10067;53.092;8.800;2023-02-01T06:52:05;27.47;;;4.60;;
19814;SDS011;10067;53.092;8.800;2023-02-01T06:54:32;28.50;;;4.60;;
19814;SDS011;10067;53.092;8.800;2023-02-01T06:56:59;23.27;;;3.87;;
19814;SDS011;10067;53.092;8.800;2023-02-01T06:59:25;22.20;;;4.60;;
19814;SDS011;10067;53.092;8.800;2023-02-01T07:01:52;16.33;;;4.07;;
19814;SDS011;10067;53.092;8.800;2023-02-01T07:04:19;25.80;;;4.43;;
19814;SDS011;10067;53.092;8.800;2023-02-01T07:06:46;22.60;;;4.23;;
19814;SDS011;10067;53.092;8.800;2023-02-01T07:09:12;27.33;;;5.50;;
19814;SDS011;10067;53.092;8.800;2023-02-01T07:11:39;22.97;;;4.60;;
19814;SDS011;10067;53.092;8.800;2023-02-01T07:14:08;19.67;;;6.00;;
19814;SDS011;10067;53.092;8.800;2023-02-01T07:16:34;23.43;;;7.73;;
19814;SDS011;10067;53.092;8.800;2023-02-01T07:19:01;18.90;;;6.57;;
19814;SDS011;10067;53.092;8.800;2023-02-01T07:21:28;24.33;;;12.03;;
19814;SDS011;10067;53.092;8.800;2023-02-01T07:23:55;30.63;;;14.00;;
19814;SDS011;10067;53.092;8.800;2023-02-01T07:26:21;25.63;;;10.93;;
19814;SDS011;10067;53.092;8.800;2023-02-01T07:28:48;29.20;;;4.50;;
19814;SDS011;10067;53.092;8.800;2023-02-01T07:31:15;42.03;;;5.90;;
19814;SDS011;10067;53.092;8.800;2023-02-01T07:33:43;30.00;;;4.43;;
19814;SDS011;10067;53.092;8.800;2023-02-01T07:36:10;30.37;;;4.93;;
19814;SDS011;10067;53.092;8.800;2023-02-01T07:38:38;24.83;;;4.80;;
19814;SDS011;10067;53.092;8.800;2023-02-01T07:41:05;30.07;;;5.30;;
19814;SDS011;10067;53.092;8.800;2023-02-01T07:43:33;25.40;;;5.47;;
19814;SDS011;10067;53.092;8.800;2023-02-01T07:45:59;23.97;;;4.40;;
19814;SDS011;10067;53.092;8.800;2023-02-01T07:48:26;40.20;;;8.00;;
19814;SDS011;10067;53.092;8.800;2023-02-01T07:50:57;33.27;;;6.00;;
19814;SDS011;10067;53.092;8.800;2023-02-01T07:53:23;32.27;;;5.27;;
19814;SDS011;10067;53.092;8.800;2023-02-01T07:55:51;32.17;;;5.73;;
19814;SDS011;10067;53.092;8.800;2023-02-01T07:58:17;27.37;;;5.37;;
19814;SDS011;10067;53.092;8.800;2023-02-01T08:00:44;35.70;;;4.70;;
19814;SDS011;10067;53.092;8.800;2023-02-01T08:03:28;33.43;;;5.30;;
19814;SDS011;10067;53.092;8.800;2023-02-01T08:05:54;34.57;;;5.03;;
19814;SDS011;10067;53.092;8.800;2023-02-01T08:08:21;19.03;;;4.70;;
19814;SDS011;10067;53.092;8.800;2023-02-01T08:10:47;22.27;;;4.70;;
19814;SDS011;10067;53.092;8.800;2023-02-01T08:13:16;26.70;;;5.13;;
19814;SDS011;10067;53.092;8.800;2023-02-01T08:15:42;22.00;;;4.50;;
19814;SDS011;10067;53.092;8.800;2023-02-01T08:18:08;26.93;;;4.70;;
19814;SDS011;10067;53.092;8.800;2023-02-01T08:20:36;25.80;;;5.00;;
19814;SDS011;10067;53.092;8.800;2023-02-01T08:23:07;22.17;;;4.43;;
19814;SDS011;10067;53.092;8.800;2023-02-01T08:25:33;21.20;;;4.97;;
19814;SDS011;10067;53.092;8.800;2023-02-01T08:28:01;32.80;;;5.80;;
19814;SDS011;10067;53.092;8.800;2023-02-01T08:30:28;22.57;;;4.93;;
19814;SDS011;10067;53.092;8.800;2023-02-01T08:32:55;25.43;;;4.53;;
19814;SDS011;10067;53.092;8.800;2023-02-01T08:35:21;22.60;;;4.23;;
19814;SDS011;10067;53.092;8.800;2023-02-01T08:37:49;25.37;;;4.30;;
19814;SDS011;10067;53.092;8.800;2023-02-01T08:40:15;23.07;;;4.23;;
19814;SDS011;10067;53.092;8.800;2023-02-01T08:42:42;23.33;;;4.67;;
19814;SDS011;10067;53.092;8.800;2023-02-01T08:45:18;33.53;;;4.60;;
19814;SDS011;10067;53.092;8.800;2023-02-01T08:47:46;22.93;;;3.97;;
19814;SDS011;10067;53.092;8.800;2023-02-01T08:50:13;30.30;;;5.20;;
19814;SDS011;10067;53.092;8.800;2023-02-01T08:52:39;23.00;;;4.20;;
19814;SDS011;10067;53.092;8.800;2023-02-01T08:55:06;25.80;;;4.47;;
19814;SDS011;10067;53.092;8.800;2023-02-01T08:57:32;26.90;;;4.20;;
19814;SDS011;10067;53.092;8.800;2023-02-01T08:59:59;21.77;;;4.23;;
19814;SDS011;10067;53.092;8.800;2023-02-01T09:02:26;27.00;;;4.83;;
19814;SDS011;10067;53.092;8.800;2023-02-01T09:04:54;21.83;;;4.87;;
19814;SDS011;10067;53.092;8.800;2023-02-01T09:07:21;23.83;;;5.03;;
19814;SDS011;10067;53.092;8.800;2023-02-01T09:09:47;23.27;;;4.83;;
19814;SDS011;10067;53.092;8.800;2023-02-01T09:12:14;26.57;;;4.87;;
19814;SDS011;10067;53.092;8.800;2023-02-01T09:14:40;23.17;;;5.17;;
19814;SDS011;10067;53.092;8.800;2023-02-01T09:17:07;21.47;;;4.43;;
19814;SDS011;10067;53.092;8.800;2023-02-01T09:19:33;29.00;;;4.73;;
19814;SDS011;10067;53.092;8.800;2023-02-01T09:22:01;27.03;;;5.00;;
19814;SDS011;10067;53.092;8.800;2023-02-01T09:24:27;25.87;;;4.60;;
19814;SDS011;10067;53.092;8.800;2023-02-01T09:26:54;30.77;;;4.67;;
19814;SDS011;10067;53.092;8.800;2023-02-01T09:29:20;25.20;;;4.73;;
19814;SDS011;10067;53.092;8.800;2023-02-01T09:31:46;19.80;;;4.23;;
19814;SDS011;10067;53.092;8.800;2023-02-01T09:34:13;23.67;;;4.23;;
19814;SDS011;10067;53.092;8.800;2023-02-01T09:36:39;27.60;;;4.60;;
19814;SDS011;10067;53.092;8.800;2023-02-01T09:39:07;24.67;;;4.53;;
19814;SDS011;10067;53.092;8.800;2023-02-01T09:41:43;26.00;;;5.97;;
19814;SDS011;10067;53.092;8.800;2023-02-01T09:44:19;28.47;;;4.90;;
19814;SDS011;10067;53.092;8.800;2023-02-01T09:46:49;25.80;;;5.13;;
19814;SDS011;10067;53.092;8.800;2023-02-01T09:49:22;22.43;;;4.00;;
19814;SDS011;10067;53.092;8.800;2023-02-01T09:51:51;30.27;;;5.03;;
19814;SDS011;10067;53.092;8.800;2023-02-01T09:54:20;25.60;;;4.70;;
19814;SDS011;10067;53.092;8.800;2023-02-01T09:56:49;21.23;;;4.30;;
19814;SDS011;10067;53.092;8.800;2023-02-01T09:59:23;20.93;;;4.20;;
19814;SDS011;10067;53.092;8.800;2023-02-01T10:01:53;24.57;;;4.57;;
19814;SDS011;10067;53.092;8.800;2023-02-01T10:04:19;30.57;;;5.30;;
19814;SDS011;10067;53.092;8.800;2023-02-01T10:06:49;26.97;;;4.70;;
19814;SDS011;10067;53.092;8.800;2023-02-01T10:09:28;27.73;;;5.77;;
19814;SDS011;10067;53.092;8.800;2023-02-01T10:12:19;26.57;;;4.70;;
19814;SDS011;10067;53.092;8.800;2023-02-01T10:14:53;28.17;;;5.07;;
19814;SDS011;10067;53.092;8.800;2023-02-01T10:17:25;29.37;;;5.20;;
19814;SDS011;10067;53.092;8.800;2023-02-01T10:19:59;23.60;;;4.43;;
19814;SDS011;10067;53.092;8.800;2023-02-01T10:22:29;21.00;;;4.73;;
19814;SDS011;10067;53.092;8.800;2023-02-01T10:25:02;27.80;;;4.57;;
19814;SDS011;10067;53.092;8.800;2023-02-01T10:27:30;23.93;;;4.60;;
19814;SDS011;10067;53.092;8.800;2023-02-01T10:29:58;22.67;;;5.10;;
19814;SDS011;10067;53.092;8.800;2023-02-01T10:32:28;30.23;;;5.17;;
19814;SDS011;10067;53.092;8.800;2023-02-01T10:34:55;18.30;;;3.77;;
19814;SDS011;10067;53.092;8.800;2023-02-01T10:37:29;22.13;;;5.00;;
19814;SDS011;10067;53.092;8.800;2023-02-01T10:39:57;24.07;;;4.43;;
19814;SDS011;10067;53.092;8.800;2023-02-01T10:42:27;24.67;;;4.87;;
19814;SDS011;10067;53.092;8.800;2023-02-01T10:44:54;32.30;;;4.40;;
19814;SDS011;10067;53.092;8.800;2023-02-01T10:47:22;25.93;;;4.63;;
19814;SDS011;10067;53.092;8.800;2023-02-01T10:49:51;26.77;;;5.43;;
19814;SDS011;10067;53.092;8.800;2023-02-01T10:52:19;27.00;;;5.47;;
19814;SDS011;10067;53.092;8.800;2023-02-01T10:54:47;20.70;;;3.83;;
19814;SDS011;10067;53.092;8.800;2023-02-01T10:57:19;25.60;;;4.37;;
19814;SDS011;10067;53.092;8.800;2023-02-01T10:59:48;18.00;;;3.83;;
19814;SDS011;10067;53.092;8.800;2023-02-01T11:02:16;19.07;;;3.97;;
19814;SDS011;10067;53.092;8.800;2023-02-01T11:04:48;21.37;;;4.63;;
19814;SDS011;10067;53.092;8.800;2023-02-01T11:07:16;23.90;;;5.90;;
19814;SDS011;10067;53.092;8.800;2023-02-01T11:09:48;30.27;;;4.70;;
19814;SDS011;10067;53.092;8.800;2023-02-01T11:12:23;29.90;;;5.23;;
19814;SDS011;10067;53.092;8.800;2023-02-01T11:14:54;18.40;;;4.13;;
19814;SDS011;10067;53.092;8.800;2023-02-01T11:17:24;23.70;;;4.67;;
19814;SDS011;10067;53.092;8.800;2023-02-01T11:19:56;21.27;;;4.23;;
19814;SDS011;10067;53.092;8.800;2023-02-01T11:22:24;19.77;;;3.67;;
19814;SDS011;10067;53.092;8.800;2023-02-01T11:24:52;18.43;;;3.60;;
19814;SDS011;10067;53.092;8.800;2023-02-01T11:27:20;14.63;;;3.40;;
19814;SDS011;10067;53.092;8.800;2023-02-01T11:29:47;21.40;;;4.20;;
19814;SDS011;10067;53.092;8.800;2023-02-01T11:32:18;19.00;;;4.53;;
19814;SDS011;10067;53.092;8.800;2023-02-01T11:34:47;20.00;;;4.63;;
19814;SDS011;10067;53.092;8.800;2023-02-01T11:37:16;18.67;;;4.27;;
19814;SDS011;10067;53.092;8.800;2023-02-01T11:39:46;20.83;;;3.70;;
19814;SDS011;10067;53.092;8.800;2023-02-01T11:42:19;15.30;;;3.80;;
19814;SDS011;10067;53.092;8.800;2023-02-01T11:44:46;21.73;;;4.43;;
19814;SDS011;10067;53.092;8.800;2023-02-01T11:47:25;12.67;;;3.30;;
19814;SDS011;10067;53.092;8.800;2023-02-01T11:49:52;11.33;;;2.97;;
19814;SDS011;10067;53.092;8.800;2023-02-01T11:52:23;12.43;;;3.43;;
19814;SDS011;10067;53.092;8.800;2023-02-01T11:55:02;12.80;;;3.20;;
19814;SDS011;10067;53.092;8.800;2023-02-01T11:57:36;12.87;;;3.97;;
19814;SDS011;10067;53.092;8.800;2023-02-01T12:00:09;19.93;;;4.97;;
19814;SDS011;10067;53.092;8.800;2023-02-01T12:02:45;17.03;;;4.50;;
19814;SDS011;10067;53.092;8.800;2023-02-01T12:05:19;14.70;;;4.00;;
19814;SDS011;10067;53.092;8.800;2023-02-01T12:07:51;19.87;;;3.83;;
19814;SDS011;10067;53.092;8.800;2023-02-01T12:10:24;15.87;;;3.67;;
19814;SDS011;10067;53.092;8.800;2023-02-01T12:12:56;13.53;;;3.17;;
19814;SDS011;10067;53.092;8.800;2023-02-01T12:15:29;12.27;;;3.73;;
19814;SDS011;10067;53.092;8.800;2023-02-01T12:18:02;12.30;;;3.17;;
19814;SDS011;10067;53.092;8.800;2023-02-01T12:20:41;20.10;;;4.17;;
19814;SDS011;10067;53.092;8.800;2023-02-01T12:23:15;4.77;;;1.73;;
19814;SDS011;10067;53.092;8.800;2023-02-01T12:25:52;6.70;;;1.20;;
19814;SDS011;10067;53.092;8.800;2023-02-01T12:28:27;6.13;;;1.13;;
19814;SDS011;10067;53.092;8.800;2023-02-01T12:33:43;1.77;;;0.90;;
19814;SDS011;10067;53.092;8.800;2023-02-01T12:36:16;2.33;;;1.10;;
19814;SDS011;10067;53.092;8.800;2023-02-01T12:38:47;3.37;;;1.13;;
19814;SDS011;10067;53.092;8.800;2023-02-01T12:41:19;2.40;;;1.30;;
19814;SDS011;10067;53.092;8.800;2023-02-01T12:43:53;1.60;;;0.83;;
19814;SDS011;10067;53.092;8.800;2023-02-01T12:46:22;1.83;;;1.00;;
19814;SDS011;10067;53.092;8.800;2023-02-01T12:48:53;5.27;;;1.50;;
19814;SDS011;10067;53.092;8.800;2023-02-01T12:51:26;3.33;;;1.40;;
19814;SDS011;10067;53.092;8.800;2023-02-01T12:53:54;3.73;;;1.70;;
19814;SDS011;10067;53.092;8.800;2023-02-01T12:56:22;2.47;;;1.10;;
19814;SDS011;10067;53.092;8.800;2023-02-01T12:58:50;1.50;;;1.00;;
19814;SDS011;10067;53.092;8.800;2023-02-01T13:01:20;2.20;;;0.83;;
19814;SDS011;10067;53.092;8.800;2023-02-01T13:03:50;2.97;;;1.20;;
19814;SDS011;10067;53.092;8.800;2023-02-01T13:06:20;1.70;;;0.67;;
19814;SDS011;10067;53.092;8.800;2023-02-01T13:08:48;3.13;;;0.80;;
19814;SDS011;10067;53.092;8.800;2023-02-01T13:11:17;1.43;;;0.60;;
19814;SDS011;10067;53.092;8.800;2023-02-01T13:13:49;2.73;;;0.80;;
19814;SDS011;10067;53.092;8.800;2023-02-01T13:16:21;3.73;;;0.97;;
19814;SDS011;10067;53.092;8.800;2023-02-01T13:19:03;4.20;;;0.90;;
19814;SDS011;10067;53.092;8.800;2023-02-01T13:21:33;1.90;;;0.80;;
19814;SDS011;10067;53.092;8.800;2023-02-01T13:24:00;2.63;;;1.07;;
19814;SDS011;10067;53.092;8.800;2023-02-01T13:26:27;4.73;;;1.40;;
19814;SDS011;10067;53.092;8.800;2023-02-01T13:28:55;6.00;;;1.10;;
19814;SDS011;10067;53.092;8.800;2023-02-01T13:34:25;6.53;;;1.60;;
19814;SDS011;10067;53.092;8.800;2023-02-01T13:36:58;4.67;;;1.17;;
19814;SDS011;10067;53.092;8.800;2023-02-01T13:39:34;11.53;;;1.70;;
19814;SDS011;10067;53.092;8.800;2023-02-01T13:42:03;7.35;;;1.63;;
19814;SDS011;10067;53.092;8.800;2023-02-01T13:44:31;7.50;;;2.05;;
19814;SDS011;10067;53.092;8.800;2023-02-01T13:46:59;10.32;;;1.75;;
19814;SDS011;10067;53.092;8.800;2023-02-01T13:49:27;12.25;;;2.47;;
19814;SDS011;10067;53.092;8.800;2023-02-01T13:51:55;12.63;;;1.85;;
19814;SDS011;10067;53.092;8.800;2023-02-01T13:54:27;9.97;;;1.83;;
19814;SDS011;10067;53.092;8.800;2023-02-01T13:56:54;9.20;;;1.98;;
19814;SDS011;10067;53.092;8.800;2023-02-01T13:59:37;15.30;;;2.10;;
19814;SDS011;10067;53.092;8.800;2023-02-01T14:04:58;7.80;;;1.80;;
19814;SDS011;10067;53.092;8.800;2023-02-01T14:07:25;11.13;;;2.03;;
19814;SDS011;10067;53.092;8.800;2023-02-01T14:09:54;9.48;;;1.88;;
19814;SDS011;10067;53.092;8.800;2023-02-01T14:15:24;12.57;;;2.50;;
19814;SDS011;10067;53.092;8.800;2023-02-01T14:17:51;9.07;;;2.17;;
19814;SDS011;10067;53.092;8.800;2023-02-01T14:23:21;9.73;;;2.10;;
19814;SDS011;10067;53.092;8.800;2023-02-01T14:25:57;13.45;;;2.88;;
19814;SDS011;10067;53.092;8.800;2023-02-01T14:28:28;13.30;;;2.90;;
19814;SDS011;10067;53.092;8.800;2023-02-01T14:30:56;14.15;;;2.65;;
19814;SDS011;10067;53.092;8.800;2023-02-01T14:33:23;9.70;;;2.30;;
19814;SDS011;10067;53.092;8.800;2023-02-01T14:38:35;16.92;;;2.92;;
19814;SDS011;10067;53.092;8.800;2023-02-01T14:49:23;19.90;;;3.63;;
19814;SDS011;10067;53.092;8.800;2023-02-01T14:51:50;12.73;;;2.63;;
19814;SDS011;10067;53.092;8.800;2023-02-01T14:54:18;16.63;;;3.47;;
19814;SDS011;10067;53.092;8.800;2023-02-01T14:56:45;19.50;;;3.50;;
19814;SDS011;10067;53.092;8.800;2023-02-01T14:59:14;18.30;;;3.63;;
19814;SDS011;10067;53.092;8.800;2023-02-01T15:01:46;24.27;;;4.17;;
19814;SDS011;10067;53.092;8.800;2023-02-01T15:04:15;24.17;;;3.83;;
19814;SDS011;10067;53.092;8.800;2023-02-01T15:06:43;21.23;;;4.60;;
19814;SDS011;10067;53.092;8.800;2023-02-01T15:09:11;26.27;;;4.50;;
19814;SDS011;10067;53.092;8.800;2023-02-01T15:11:54;24.43;;;4.63;;
19814;SDS011;10067;53.092;8.800;2023-02-01T15:14:22;25.13;;;4.60;;
19814;SDS011;10067;53.092;8.800;2023-02-01T15:16:49;24.17;;;5.23;;